sensor_id;sensor_type;location;lat;lon;timestamp;temperature;humidity
65707;SHT31;52423;43.512;5.220;2022-12-18T00:01:24;3.65;90.61
65707;SHT31;52423;43.512;5.220;2022-12-18T00:03:50;3.79;90.02
65707;SHT31;52423;43.512;5.220;2022-12-18T00:06:16;3.75;89.62
65707;SHT31;52423;43.512;5.220;2022-12-18T00:08:42;3.76;90.38
65707;SHT31;52423;43.512;5.220;2022-12-18T00:11:11;3.73;90.58
65707;SHT31;52423;43.512;5.220;2022-12-18T00:13:36;3.59;90.64
65707;SHT31;52423;43.512;5.220;2022-12-18T00:16:03;3.67;91.15
65707;SHT31;52423;43.512;5.220;2022-12-18T00:18:29;3.69;91.83
65707;SHT31;52423;43.512;5.220;2022-12-18T00:20:58;3.70;91.14
65707;SHT31;52423;43.512;5.220;2022-12-18T00:23:24;3.77;92.01
65707;SHT31;52423;43.512;5.220;2022-12-18T00:25:49;3.82;90.00
65707;SHT31;52423;43.512;5.220;2022-12-18T00:28:14;3.82;89.41
65707;SHT31;52423;43.512;5.220;2022-12-18T00:30:40;3.87;91.40
65707;SHT31;52423;43.512;5.220;2022-12-18T00:33:05;3.86;89.63
65707;SHT31;52423;43.512;5.220;2022-12-18T00:35:31;3.87;90.03
65707;SHT31;52423;43.512;5.220;2022-12-18T00:37:56;3.85;89.94
65707;SHT31;52423;43.512;5.220;2022-12-18T00:40:22;3.86;89.83
65707;SHT31;52423;43.512;5.220;2022-12-18T00:42:47;3.87;89.56
65707;SHT31;52423;43.512;5.220;2022-12-18T00:45:26;3.83;89.38
65707;SHT31;52423;43.512;5.220;2022-12-18T00:47:52;3.96;91.78
65707;SHT31;52423;43.512;5.220;2022-12-18T00:50:18;3.97;91.21
65707;SHT31;52423;43.512;5.220;2022-12-18T00:52:44;4.07;91.11
65707;SHT31;52423;43.512;5.220;2022-12-18T00:55:09;4.16;90.66
65707;SHT31;52423;43.512;5.220;2022-12-18T00:57:35;4.22;90.38
65707;SHT31;52423;43.512;5.220;2022-12-18T01:00:01;4.34;90.69
65707;SHT31;52423;43.512;5.220;2022-12-18T01:02:26;4.31;89.54
65707;SHT31;52423;43.512;5.220;2022-12-18T01:04:51;4.34;89.49
65707;SHT31;52423;43.512;5.220;2022-12-18T01:07:17;4.51;90.29
65707;SHT31;52423;43.512;5.220;2022-12-18T01:09:42;4.41;89.53
65707;SHT31;52423;43.512;5.220;2022-12-18T01:12:08;4.56;89.62
65707;SHT31;52423;43.512;5.220;2022-12-18T01:14:33;4.68;89.11
65707;SHT31;52423;43.512;5.220;2022-12-18T01:16:58;4.62;89.23
65707;SHT31;52423;43.512;5.220;2022-12-18T01:19:24;4.58;89.51
65707;SHT31;52423;43.512;5.220;2022-12-18T01:21:49;4.92;88.30
65707;SHT31;52423;43.512;5.220;2022-12-18T01:24:15;5.01;88.20
65707;SHT31;52423;43.512;5.220;2022-12-18T01:26:40;4.96;88.93
65707;SHT31;52423;43.512;5.220;2022-12-18T01:29:05;4.95;88.31
65707;SHT31;52423;43.512;5.220;2022-12-18T01:31:32;4.69;88.25
65707;SHT31;52423;43.512;5.220;2022-12-18T01:34:00;4.47;89.11
65707;SHT31;52423;43.512;5.220;2022-12-18T01:36:31;4.49;89.16
65707;SHT31;52423;43.512;5.220;2022-12-18T01:38:59;4.47;88.36
65707;SHT31;52423;43.512;5.220;2022-12-18T01:41:30;4.41;88.41
65707;SHT31;52423;43.512;5.220;2022-12-18T01:49:49;4.16;89.54
65707;SHT31;52423;43.512;5.220;2022-12-18T01:52:15;4.08;90.48
65707;SHT31;52423;43.512;5.220;2022-12-18T01:54:41;4.07;89.99
65707;SHT31;52423;43.512;5.220;2022-12-18T01:57:06;4.06;90.01
65707;SHT31;52423;43.512;5.220;2022-12-18T01:59:33;4.00;89.23
65707;SHT31;52423;43.512;5.220;2022-12-18T02:01:59;4.07;90.11
65707;SHT31;52423;43.512;5.220;2022-12-18T02:04:27;4.07;90.05
65707;SHT31;52423;43.512;5.220;2022-12-18T02:15:21;4.49;91.63
65707;SHT31;52423;43.512;5.220;2022-12-18T02:18:05;4.68;90.96
65707;SHT31;52423;43.512;5.220;2022-12-18T02:21:13;4.86;89.84
65707;SHT31;52423;43.512;5.220;2022-12-18T02:26:30;5.22;87.67
65707;SHT31;52423;43.512;5.220;2022-12-18T02:29:03;5.22;87.82
65707;SHT31;52423;43.512;5.220;2022-12-18T02:31:40;5.22;87.82
65707;SHT31;52423;43.512;5.220;2022-12-18T02:34:08;5.28;87.85
65707;SHT31;52423;43.512;5.220;2022-12-18T02:36:36;5.31;87.99
65707;SHT31;52423;43.512;5.220;2022-12-18T02:39:05;5.36;87.52
65707;SHT31;52423;43.512;5.220;2022-12-18T02:41:31;5.43;87.51
65707;SHT31;52423;43.512;5.220;2022-12-18T02:43:59;5.47;86.91
65707;SHT31;52423;43.512;5.220;2022-12-18T02:46:34;5.46;86.59
65707;SHT31;52423;43.512;5.220;2022-12-18T02:49:14;5.54;86.16
65707;SHT31;52423;43.512;5.220;2022-12-18T02:51:50;5.54;86.23
65707;SHT31;52423;43.512;5.220;2022-12-18T02:54:36;5.44;87.03
65707;SHT31;52423;43.512;5.220;2022-12-18T02:57:17;5.43;87.75
65707;SHT31;52423;43.512;5.220;2022-12-18T03:05:23;5.46;87.11
65707;SHT31;52423;43.512;5.220;2022-12-18T03:08:20;5.48;87.12
65707;SHT31;52423;43.512;5.220;2022-12-18T03:11:03;5.44;87.77
65707;SHT31;52423;43.512;5.220;2022-12-18T03:16:14;5.41;88.46
65707;SHT31;52423;43.512;5.220;2022-12-18T03:21:14;5.47;88.89
65707;SHT31;52423;43.512;5.220;2022-12-18T03:23:44;5.50;88.93
65707;SHT31;52423;43.512;5.220;2022-12-18T03:26:14;5.52;88.90
65707;SHT31;52423;43.512;5.220;2022-12-18T03:28:47;5.52;88.90
65707;SHT31;52423;43.512;5.220;2022-12-18T03:31:15;5.50;88.71
65707;SHT31;52423;43.512;5.220;2022-12-18T03:33:57;5.54;88.80
65707;SHT31;52423;43.512;5.220;2022-12-18T03:36:24;5.51;89.19
65707;SHT31;52423;43.512;5.220;2022-12-18T03:38:50;5.55;88.76
65707;SHT31;52423;43.512;5.220;2022-12-18T03:44:03;5.55;88.79
65707;SHT31;52423;43.512;5.220;2022-12-18T03:46:56;5.50;89.19
65707;SHT31;52423;43.512;5.220;2022-12-18T03:49:33;5.52;89.23
65707;SHT31;52423;43.512;5.220;2022-12-18T03:52:04;5.61;89.23
65707;SHT31;52423;43.512;5.220;2022-12-18T03:54:31;5.57;89.45
65707;SHT31;52423;43.512;5.220;2022-12-18T03:57:05;5.57;89.82
65707;SHT31;52423;43.512;5.220;2022-12-18T03:59:32;5.58;89.59
65707;SHT31;52423;43.512;5.220;2022-12-18T04:01:59;5.50;89.66
65707;SHT31;52423;43.512;5.220;2022-12-18T04:04:27;5.48;90.00
65707;SHT31;52423;43.512;5.220;2022-12-18T04:06:54;5.48;90.28
65707;SHT31;52423;43.512;5.220;2022-12-18T04:09:20;5.51;89.91
65707;SHT31;52423;43.512;5.220;2022-12-18T04:11:46;5.50;90.04
65707;SHT31;52423;43.512;5.220;2022-12-18T04:14:12;5.52;90.32
65707;SHT31;52423;43.512;5.220;2022-12-18T04:16:37;5.48;90.18
65707;SHT31;52423;43.512;5.220;2022-12-18T04:19:03;5.47;90.16
65707;SHT31;52423;43.512;5.220;2022-12-18T04:21:29;5.46;90.28
65707;SHT31;52423;43.512;5.220;2022-12-18T04:23:55;5.43;90.71
65707;SHT31;52423;43.512;5.220;2022-12-18T04:26:20;5.50;90.88
65707;SHT31;52423;43.512;5.220;2022-12-18T04:28:45;5.51;90.89
65707;SHT31;52423;43.512;5.220;2022-12-18T04:31:11;5.51;90.75
65707;SHT31;52423;43.512;5.220;2022-12-18T04:33:36;5.59;90.41
65707;SHT31;52423;43.512;5.220;2022-12-18T04:36:02;5.55;90.38
65707;SHT31;52423;43.512;5.220;2022-12-18T04:38:27;5.52;90.37
65707;SHT31;52423;43.512;5.220;2022-12-18T04:40:53;5.52;90.33
65707;SHT31;52423;43.512;5.220;2022-12-18T04:43:18;5.48;90.52
65707;SHT31;52423;43.512;5.220;2022-12-18T04:45:43;5.55;90.41
65707;SHT31;52423;43.512;5.220;2022-12-18T04:48:09;5.54;90.63
65707;SHT31;52423;43.512;5.220;2022-12-18T04:50:34;5.57;90.96
65707;SHT31;52423;43.512;5.220;2022-12-18T04:53:00;5.59;90.59
65707;SHT31;52423;43.512;5.220;2022-12-18T04:55:25;5.62;90.47
65707;SHT31;52423;43.512;5.220;2022-12-18T04:57:51;5.71;90.25
65707;SHT31;52423;43.512;5.220;2022-12-18T05:00:17;5.68;90.25
65707;SHT31;52423;43.512;5.220;2022-12-18T05:02:42;5.75;90.19
65707;SHT31;52423;43.512;5.220;2022-12-18T05:05:08;5.71;90.47
65707;SHT31;52423;43.512;5.220;2022-12-18T05:07:34;5.72;90.43
65707;SHT31;52423;43.512;5.220;2022-12-18T05:09:59;5.69;90.20
65707;SHT31;52423;43.512;5.220;2022-12-18T05:12:25;5.71;90.18
65707;SHT31;52423;43.512;5.220;2022-12-18T05:14:50;5.72;89.91
65707;SHT31;52423;43.512;5.220;2022-12-18T05:17:15;5.77;90.22
65707;SHT31;52423;43.512;5.220;2022-12-18T05:19:41;5.75;90.59
65707;SHT31;52423;43.512;5.220;2022-12-18T05:22:06;5.79;90.71
65707;SHT31;52423;43.512;5.220;2022-12-18T05:24:32;5.79;90.35
65707;SHT31;52423;43.512;5.220;2022-12-18T05:26:57;5.77;90.13
65707;SHT31;52423;43.512;5.220;2022-12-18T05:29:22;5.77;89.87
65707;SHT31;52423;43.512;5.220;2022-12-18T05:31:48;5.89;89.18
65707;SHT31;52423;43.512;5.220;2022-12-18T05:34:13;5.79;89.40
65707;SHT31;52423;43.512;5.220;2022-12-18T05:36:39;5.78;89.55
65707;SHT31;52423;43.512;5.220;2022-12-18T05:39:04;5.75;89.66
65707;SHT31;52423;43.512;5.220;2022-12-18T05:41:29;5.79;89.44
65707;SHT31;52423;43.512;5.220;2022-12-18T05:43:55;5.75;89.54
65707;SHT31;52423;43.512;5.220;2022-12-18T05:46:20;5.67;90.03
65707;SHT31;52423;43.512;5.220;2022-12-18T05:48:46;5.62;90.69
65707;SHT31;52423;43.512;5.220;2022-12-18T05:51:17;5.59;90.43
65707;SHT31;52423;43.512;5.220;2022-12-18T05:53:43;5.62;90.14
65707;SHT31;52423;43.512;5.220;2022-12-18T05:56:16;5.59;90.15
65707;SHT31;52423;43.512;5.220;2022-12-18T05:58:42;5.57;89.83
65707;SHT31;52423;43.512;5.220;2022-12-18T06:01:13;5.61;89.67
65707;SHT31;52423;43.512;5.220;2022-12-18T06:03:39;5.55;90.07
65707;SHT31;52423;43.512;5.220;2022-12-18T06:06:20;5.58;89.83
65707;SHT31;52423;43.512;5.220;2022-12-18T06:08:46;5.58;89.73
65707;SHT31;52423;43.512;5.220;2022-12-18T06:11:11;5.61;89.19
65707;SHT31;52423;43.512;5.220;2022-12-18T06:13:37;5.57;89.17
65707;SHT31;52423;43.512;5.220;2022-12-18T06:16:04;5.54;89.02
65707;SHT31;52423;43.512;5.220;2022-12-18T06:18:30;5.51;89.14
65707;SHT31;52423;43.512;5.220;2022-12-18T06:20:56;5.51;89.16
65707;SHT31;52423;43.512;5.220;2022-12-18T06:23:22;5.48;89.11
65707;SHT31;52423;43.512;5.220;2022-12-18T06:25:47;5.46;88.57
65707;SHT31;52423;43.512;5.220;2022-12-18T06:28:13;5.44;88.71
65707;SHT31;52423;43.512;5.220;2022-12-18T06:30:38;5.41;88.60
65707;SHT31;52423;43.512;5.220;2022-12-18T06:33:03;5.38;88.43
65707;SHT31;52423;43.512;5.220;2022-12-18T06:35:29;5.46;87.98
65707;SHT31;52423;43.512;5.220;2022-12-18T06:37:54;5.38;88.65
65707;SHT31;52423;43.512;5.220;2022-12-18T06:40:19;5.30;89.37
65707;SHT31;52423;43.512;5.220;2022-12-18T06:42:45;5.27;89.27
65707;SHT31;52423;43.512;5.220;2022-12-18T06:45:10;5.33;88.94
65707;SHT31;52423;43.512;5.220;2022-12-18T06:47:36;5.37;89.37
65707;SHT31;52423;43.512;5.220;2022-12-18T06:50:02;5.37;89.11
65707;SHT31;52423;43.512;5.220;2022-12-18T06:52:27;5.37;89.07
65707;SHT31;52423;43.512;5.220;2022-12-18T06:54:53;5.38;89.36
65707;SHT31;52423;43.512;5.220;2022-12-18T06:57:18;5.28;88.71
65707;SHT31;52423;43.512;5.220;2022-12-18T06:59:43;5.28;88.92
65707;SHT31;52423;43.512;5.220;2022-12-18T07:02:12;5.33;89.08
65707;SHT31;52423;43.512;5.220;2022-12-18T07:04:38;5.31;88.70
65707;SHT31;52423;43.512;5.220;2022-12-18T07:07:03;5.31;88.84
65707;SHT31;52423;43.512;5.220;2022-12-18T07:09:28;5.41;88.98
65707;SHT31;52423;43.512;5.220;2022-12-18T07:11:54;5.48;88.55
65707;SHT31;52423;43.512;5.220;2022-12-18T07:14:19;5.50;88.40
65707;SHT31;52423;43.512;5.220;2022-12-18T07:16:44;5.51;88.76
65707;SHT31;52423;43.512;5.220;2022-12-18T07:19:10;5.52;88.69
65707;SHT31;52423;43.512;5.220;2022-12-18T07:21:35;5.54;88.76
65707;SHT31;52423;43.512;5.220;2022-12-18T07:24:00;5.59;88.51
65707;SHT31;52423;43.512;5.220;2022-12-18T07:26:26;5.57;88.41
65707;SHT31;52423;43.512;5.220;2022-12-18T07:28:54;5.68;88.31
65707;SHT31;52423;43.512;5.220;2022-12-18T07:31:21;5.78;87.88
65707;SHT31;52423;43.512;5.220;2022-12-18T07:33:47;5.87;87.21
65707;SHT31;52423;43.512;5.220;2022-12-18T07:36:13;5.98;86.79
65707;SHT31;52423;43.512;5.220;2022-12-18T07:38:39;6.10;86.16
65707;SHT31;52423;43.512;5.220;2022-12-18T07:41:10;6.16;86.31
65707;SHT31;52423;43.512;5.220;2022-12-18T07:43:36;6.30;85.90
65707;SHT31;52423;43.512;5.220;2022-12-18T07:46:02;6.29;86.15
65707;SHT31;52423;43.512;5.220;2022-12-18T07:48:28;6.37;86.84
65707;SHT31;52423;43.512;5.220;2022-12-18T07:51:01;6.46;86.34
65707;SHT31;52423;43.512;5.220;2022-12-18T07:53:27;6.46;85.67
65707;SHT31;52423;43.512;5.220;2022-12-18T07:56:01;6.51;85.16
65707;SHT31;52423;43.512;5.220;2022-12-18T07:58:27;6.60;85.18
65707;SHT31;52423;43.512;5.220;2022-12-18T08:00:53;6.64;84.97
65707;SHT31;52423;43.512;5.220;2022-12-18T08:03:19;6.54;85.10
65707;SHT31;52423;43.512;5.220;2022-12-18T08:05:44;6.56;85.85
65707;SHT31;52423;43.512;5.220;2022-12-18T08:08:10;6.74;85.79
65707;SHT31;52423;43.512;5.220;2022-12-18T08:10:35;6.92;85.29
65707;SHT31;52423;43.512;5.220;2022-12-18T08:13:00;7.02;85.09
65707;SHT31;52423;43.512;5.220;2022-12-18T08:15:26;7.11;84.57
65707;SHT31;52423;43.512;5.220;2022-12-18T08:17:51;7.26;84.52
65707;SHT31;52423;43.512;5.220;2022-12-18T08:20:17;7.39;84.10
65707;SHT31;52423;43.512;5.220;2022-12-18T08:22:43;7.33;84.36
65707;SHT31;52423;43.512;5.220;2022-12-18T08:25:09;7.35;84.21
65707;SHT31;52423;43.512;5.220;2022-12-18T08:27:34;7.32;83.83
65707;SHT31;52423;43.512;5.220;2022-12-18T08:30:00;7.35;84.66
65707;SHT31;52423;43.512;5.220;2022-12-18T08:32:27;7.36;84.10
65707;SHT31;52423;43.512;5.220;2022-12-18T08:34:52;7.35;84.97
65707;SHT31;52423;43.512;5.220;2022-12-18T08:37:18;7.36;84.26
65707;SHT31;52423;43.512;5.220;2022-12-18T08:39:43;7.36;83.94
65707;SHT31;52423;43.512;5.220;2022-12-18T08:42:09;7.30;84.36
65707;SHT31;52423;43.512;5.220;2022-12-18T08:44:53;7.40;83.81
65707;SHT31;52423;43.512;5.220;2022-12-18T08:47:18;7.50;82.74
65707;SHT31;52423;43.512;5.220;2022-12-18T08:49:44;7.55;82.74
65707;SHT31;52423;43.512;5.220;2022-12-18T08:52:09;7.56;82.98
65707;SHT31;52423;43.512;5.220;2022-12-18T08:56:39;7.63;83.95
65707;SHT31;52423;43.512;5.220;2022-12-18T08:59:05;7.67;82.93
65707;SHT31;52423;43.512;5.220;2022-12-18T09:01:30;7.74;82.16
65707;SHT31;52423;43.512;5.220;2022-12-18T09:03:55;7.80;82.37
65707;SHT31;52423;43.512;5.220;2022-12-18T09:06:22;7.81;82.55
65707;SHT31;52423;43.512;5.220;2022-12-18T09:08:48;7.87;82.63
65707;SHT31;52423;43.512;5.220;2022-12-18T09:11:23;7.90;82.42
65707;SHT31;52423;43.512;5.220;2022-12-18T09:13:49;8.01;82.75
65707;SHT31;52423;43.512;5.220;2022-12-18T09:16:15;8.07;82.76
65707;SHT31;52423;43.512;5.220;2022-12-18T09:18:41;8.07;83.29
65707;SHT31;52423;43.512;5.220;2022-12-18T09:21:14;8.20;82.81
65707;SHT31;52423;43.512;5.220;2022-12-18T09:23:41;8.27;83.13
65707;SHT31;52423;43.512;5.220;2022-12-18T09:26:06;8.27;82.91
65707;SHT31;52423;43.512;5.220;2022-12-18T09:28:32;8.34;82.68
65707;SHT31;52423;43.512;5.220;2022-12-18T09:30:58;8.52;83.03
65707;SHT31;52423;43.512;5.220;2022-12-18T09:33:23;8.70;81.67
65707;SHT31;52423;43.512;5.220;2022-12-18T09:35:49;8.75;81.71
65707;SHT31;52423;43.512;5.220;2022-12-18T09:38:17;8.66;82.96
65707;SHT31;52423;43.512;5.220;2022-12-18T09:40:45;8.76;82.75
65707;SHT31;52423;43.512;5.220;2022-12-18T09:43:26;8.94;82.50
65707;SHT31;52423;43.512;5.220;2022-12-18T09:45:56;9.19;82.29
65707;SHT31;52423;43.512;5.220;2022-12-18T09:48:29;9.19;82.38
65707;SHT31;52423;43.512;5.220;2022-12-18T09:51:00;9.16;82.61
65707;SHT31;52423;43.512;5.220;2022-12-18T09:53:31;9.16;83.31
65707;SHT31;52423;43.512;5.220;2022-12-18T09:55:58;9.20;82.99
65707;SHT31;52423;43.512;5.220;2022-12-18T09:58:41;9.13;83.85
65707;SHT31;52423;43.512;5.220;2022-12-18T10:01:12;9.19;84.15
65707;SHT31;52423;43.512;5.220;2022-12-18T10:03:39;9.23;83.52
65707;SHT31;52423;43.512;5.220;2022-12-18T10:06:16;9.40;83.27
65707;SHT31;52423;43.512;5.220;2022-12-18T10:11:54;9.64;83.17
65707;SHT31;52423;43.512;5.220;2022-12-18T10:17:26;9.57;83.94
65707;SHT31;52423;43.512;5.220;2022-12-18T10:20:00;9.52;83.95
65707;SHT31;52423;43.512;5.220;2022-12-18T10:25:19;9.55;84.82
65707;SHT31;52423;43.512;5.220;2022-12-18T10:27:46;9.47;84.73
65707;SHT31;52423;43.512;5.220;2022-12-18T10:30:20;9.44;84.89
65707;SHT31;52423;43.512;5.220;2022-12-18T10:32:45;9.47;84.68
65707;SHT31;52423;43.512;5.220;2022-12-18T10:35:25;9.75;83.56
65707;SHT31;52423;43.512;5.220;2022-12-18T10:43:14;10.10;83.44
65707;SHT31;52423;43.512;5.220;2022-12-18T10:45:41;10.32;82.08
65707;SHT31;52423;43.512;5.220;2022-12-18T10:48:20;10.49;81.31
65707;SHT31;52423;43.512;5.220;2022-12-18T10:50:49;10.60;81.42
65707;SHT31;52423;43.512;5.220;2022-12-18T10:53:21;11.01;79.21
65707;SHT31;52423;43.512;5.220;2022-12-18T10:55:48;11.12;79.51
65707;SHT31;52423;43.512;5.220;2022-12-18T10:58:24;11.25;79.23
65707;SHT31;52423;43.512;5.220;2022-12-18T11:01:13;10.91;79.86
65707;SHT31;52423;43.512;5.220;2022-12-18T11:03:45;10.97;81.12
65707;SHT31;52423;43.512;5.220;2022-12-18T11:06:16;10.90;81.57
65707;SHT31;52423;43.512;5.220;2022-12-18T11:08:46;10.94;80.90
65707;SHT31;52423;43.512;5.220;2022-12-18T11:11:23;10.85;81.02
65707;SHT31;52423;43.512;5.220;2022-12-18T11:14:02;10.92;80.43
65707;SHT31;52423;43.512;5.220;2022-12-18T11:16:29;10.94;81.22
65707;SHT31;52423;43.512;5.220;2022-12-18T11:19:12;10.98;80.94
65707;SHT31;52423;43.512;5.220;2022-12-18T11:21:41;11.00;80.96
65707;SHT31;52423;43.512;5.220;2022-12-18T11:26:46;10.92;81.61
65707;SHT31;52423;43.512;5.220;2022-12-18T11:29:17;10.91;81.47
65707;SHT31;52423;43.512;5.220;2022-12-18T11:31:43;10.84;81.28
65707;SHT31;52423;43.512;5.220;2022-12-18T11:34:16;10.90;80.78
65707;SHT31;52423;43.512;5.220;2022-12-18T11:36:46;10.88;81.81
65707;SHT31;52423;43.512;5.220;2022-12-18T11:39:19;10.95;80.46
65707;SHT31;52423;43.512;5.220;2022-12-18T11:41:54;11.01;81.27
65707;SHT31;52423;43.512;5.220;2022-12-18T11:44:55;11.31;80.54
65707;SHT31;52423;43.512;5.220;2022-12-18T11:47:44;11.40;78.95
65707;SHT31;52423;43.512;5.220;2022-12-18T11:53:02;11.44;80.31
65707;SHT31;52423;43.512;5.220;2022-12-18T11:58:14;11.52;79.23
65707;SHT31;52423;43.512;5.220;2022-12-18T12:00:47;11.49;79.96
65707;SHT31;52423;43.512;5.220;2022-12-18T12:03:27;11.40;80.31
65707;SHT31;52423;43.512;5.220;2022-12-18T12:06:10;11.29;80.87
65707;SHT31;52423;43.512;5.220;2022-12-18T12:08:44;11.21;79.76
65707;SHT31;52423;43.512;5.220;2022-12-18T12:11:43;11.23;80.59
65707;SHT31;52423;43.512;5.220;2022-12-18T12:16:59;11.33;80.08
65707;SHT31;52423;43.512;5.220;2022-12-18T12:40:45;12.42;75.65
65707;SHT31;52423;43.512;5.220;2022-12-18T12:46:09;12.86;72.22
65707;SHT31;52423;43.512;5.220;2022-12-18T12:48:45;13.27;72.54
65707;SHT31;52423;43.512;5.220;2022-12-18T12:51:18;13.17;73.01
65707;SHT31;52423;43.512;5.220;2022-12-18T12:53:45;13.22;71.94
65707;SHT31;52423;43.512;5.220;2022-12-18T12:56:14;13.16;71.94
65707;SHT31;52423;43.512;5.220;2022-12-18T12:59:15;13.13;72.29
65707;SHT31;52423;43.512;5.220;2022-12-18T13:02:26;13.34;69.65
65707;SHT31;52423;43.512;5.220;2022-12-18T13:07:56;13.32;70.71
65707;SHT31;52423;43.512;5.220;2022-12-18T13:10:26;13.37;71.23
65707;SHT31;52423;43.512;5.220;2022-12-18T13:13:00;13.33;70.77
65707;SHT31;52423;43.512;5.220;2022-12-18T13:15:45;13.32;70.53
65707;SHT31;52423;43.512;5.220;2022-12-18T13:18:21;13.34;70.84
65707;SHT31;52423;43.512;5.220;2022-12-18T13:20:50;13.34;71.30
65707;SHT31;52423;43.512;5.220;2022-12-18T13:26:36;13.50;70.64
65707;SHT31;52423;43.512;5.220;2022-12-18T13:31:12;13.46;71.81
65707;SHT31;52423;43.512;5.220;2022-12-18T13:38:38;13.55;70.95
65707;SHT31;52423;43.512;5.220;2022-12-18T13:41:22;13.68;71.22
65707;SHT31;52423;43.512;5.220;2022-12-18T13:43:54;13.82;68.53
65707;SHT31;52423;43.512;5.220;2022-12-18T13:46:28;13.86;66.47
65707;SHT31;52423;43.512;5.220;2022-12-18T13:51:26;13.84;67.93
65707;SHT31;52423;43.512;5.220;2022-12-18T13:54:02;13.89;68.60
65707;SHT31;52423;43.512;5.220;2022-12-18T13:56:32;13.74;68.02
65707;SHT31;52423;43.512;5.220;2022-12-18T13:59:15;13.89;68.11
65707;SHT31;52423;43.512;5.220;2022-12-18T14:01:48;14.00;65.92
65707;SHT31;52423;43.512;5.220;2022-12-18T14:04:23;13.97;66.23
65707;SHT31;52423;43.512;5.220;2022-12-18T14:06:51;13.88;66.58
65707;SHT31;52423;43.512;5.220;2022-12-18T14:09:24;13.89;66.37
65707;SHT31;52423;43.512;5.220;2022-12-18T14:11:51;13.84;66.78
65707;SHT31;52423;43.512;5.220;2022-12-18T14:14:18;13.64;67.11
65707;SHT31;52423;43.512;5.220;2022-12-18T14:16:45;13.48;68.08
65707;SHT31;52423;43.512;5.220;2022-12-18T14:19:16;13.34;68.87
65707;SHT31;52423;43.512;5.220;2022-12-18T14:21:46;13.12;70.35
65707;SHT31;52423;43.512;5.220;2022-12-18T14:24:14;12.92;71.40
65707;SHT31;52423;43.512;5.220;2022-12-18T14:26:41;12.82;71.53
65707;SHT31;52423;43.512;5.220;2022-12-18T14:29:27;12.68;72.69
65707;SHT31;52423;43.512;5.220;2022-12-18T14:32:11;12.55;73.49
65707;SHT31;52423;43.512;5.220;2022-12-18T14:34:39;12.59;72.82
65707;SHT31;52423;43.512;5.220;2022-12-18T14:37:05;12.54;73.58
65707;SHT31;52423;43.512;5.220;2022-12-18T14:39:33;12.66;72.76
65707;SHT31;52423;43.512;5.220;2022-12-18T14:41:58;12.65;73.78
65707;SHT31;52423;43.512;5.220;2022-12-18T14:44:24;12.65;73.77
65707;SHT31;52423;43.512;5.220;2022-12-18T14:46:50;12.73;72.62
65707;SHT31;52423;43.512;5.220;2022-12-18T14:49:20;12.73;72.93
65707;SHT31;52423;43.512;5.220;2022-12-18T14:51:48;12.71;72.99
65707;SHT31;52423;43.512;5.220;2022-12-18T14:54:17;12.61;73.75
65707;SHT31;52423;43.512;5.220;2022-12-18T14:56:46;12.54;74.44
65707;SHT31;52423;43.512;5.220;2022-12-18T15:01:58;12.56;73.95
65707;SHT31;52423;43.512;5.220;2022-12-18T15:04:31;12.62;74.21
65707;SHT31;52423;43.512;5.220;2022-12-18T15:07:09;12.40;75.08
65707;SHT31;52423;43.512;5.220;2022-12-18T15:09:37;12.35;74.98
65707;SHT31;52423;43.512;5.220;2022-12-18T15:12:03;12.14;76.28
65707;SHT31;52423;43.512;5.220;2022-12-18T15:14:34;12.11;76.14
65707;SHT31;52423;43.512;5.220;2022-12-18T15:17:02;12.20;75.13
65707;SHT31;52423;43.512;5.220;2022-12-18T15:19:38;12.20;75.02
65707;SHT31;52423;43.512;5.220;2022-12-18T15:22:11;12.03;76.10
65707;SHT31;52423;43.512;5.220;2022-12-18T15:24:42;11.93;76.58
65707;SHT31;52423;43.512;5.220;2022-12-18T15:27:23;11.86;76.99
65707;SHT31;52423;43.512;5.220;2022-12-18T15:32:36;11.91;76.44
65707;SHT31;52423;43.512;5.220;2022-12-18T15:37:33;11.82;77.83
65707;SHT31;52423;43.512;5.220;2022-12-18T15:39:59;11.94;77.27
65707;SHT31;52423;43.512;5.220;2022-12-18T15:42:24;11.93;77.63
65707;SHT31;52423;43.512;5.220;2022-12-18T15:45:11;11.84;77.87
65707;SHT31;52423;43.512;5.220;2022-12-18T15:47:37;11.82;77.73
65707;SHT31;52423;43.512;5.220;2022-12-18T15:50:03;11.86;77.35
65707;SHT31;52423;43.512;5.220;2022-12-18T15:52:28;11.87;77.28
65707;SHT31;52423;43.512;5.220;2022-12-18T15:54:54;11.95;77.10
65707;SHT31;52423;43.512;5.220;2022-12-18T15:57:38;12.01;76.21
65707;SHT31;52423;43.512;5.220;2022-12-18T16:00:03;11.95;77.02
65707;SHT31;52423;43.512;5.220;2022-12-18T16:02:29;11.87;77.15
65707;SHT31;52423;43.512;5.220;2022-12-18T16:04:54;11.89;76.53
65707;SHT31;52423;43.512;5.220;2022-12-18T16:07:20;11.76;76.94
65707;SHT31;52423;43.512;5.220;2022-12-18T16:09:46;11.83;77.14
65707;SHT31;52423;43.512;5.220;2022-12-18T16:12:21;11.62;78.17
65707;SHT31;52423;43.512;5.220;2022-12-18T16:14:47;11.65;77.74
65707;SHT31;52423;43.512;5.220;2022-12-18T16:17:13;11.60;78.06
65707;SHT31;52423;43.512;5.220;2022-12-18T16:19:39;11.53;78.76
65707;SHT31;52423;43.512;5.220;2022-12-18T16:22:17;11.44;78.64
65707;SHT31;52423;43.512;5.220;2022-12-18T16:24:43;11.46;78.34
65707;SHT31;52423;43.512;5.220;2022-12-18T16:27:08;11.46;78.31
65707;SHT31;52423;43.512;5.220;2022-12-18T16:29:34;11.36;78.84
65707;SHT31;52423;43.512;5.220;2022-12-18T16:32:00;11.35;78.92
65707;SHT31;52423;43.512;5.220;2022-12-18T16:34:26;11.36;78.60
65707;SHT31;52423;43.512;5.220;2022-12-18T16:36:57;11.33;78.62
65707;SHT31;52423;43.512;5.220;2022-12-18T16:39:24;11.23;79.24
65707;SHT31;52423;43.512;5.220;2022-12-18T16:41:49;11.32;78.57
65707;SHT31;52423;43.512;5.220;2022-12-18T16:44:15;11.26;79.06
65707;SHT31;52423;43.512;5.220;2022-12-18T16:46:40;11.12;79.47
65707;SHT31;52423;43.512;5.220;2022-12-18T16:49:11;11.10;79.75
65707;SHT31;52423;43.512;5.220;2022-12-18T16:51:37;10.95;80.67
65707;SHT31;52423;43.512;5.220;2022-12-18T16:54:03;10.91;80.73
65707;SHT31;52423;43.512;5.220;2022-12-18T16:56:28;10.87;80.69
65707;SHT31;52423;43.512;5.220;2022-12-18T16:58:57;10.84;81.10
65707;SHT31;52423;43.512;5.220;2022-12-18T17:01:23;10.75;81.49
65707;SHT31;52423;43.512;5.220;2022-12-18T17:03:53;10.70;81.58
65707;SHT31;52423;43.512;5.220;2022-12-18T17:06:19;10.61;82.07
65707;SHT31;52423;43.512;5.220;2022-12-18T17:08:45;10.51;82.39
65707;SHT31;52423;43.512;5.220;2022-12-18T17:11:10;10.46;82.40
65707;SHT31;52423;43.512;5.220;2022-12-18T17:13:36;10.39;82.74
65707;SHT31;52423;43.512;5.220;2022-12-18T17:16:05;10.32;83.12
65707;SHT31;52423;43.512;5.220;2022-12-18T17:18:32;10.09;83.96
65707;SHT31;52423;43.512;5.220;2022-12-18T17:21:01;10.10;84.17
65707;SHT31;52423;43.512;5.220;2022-12-18T17:23:27;10.10;84.37
65707;SHT31;52423;43.512;5.220;2022-12-18T17:25:57;10.17;84.12
65707;SHT31;52423;43.512;5.220;2022-12-18T17:28:23;10.10;84.61
65707;SHT31;52423;43.512;5.220;2022-12-18T17:30:53;10.08;84.53
65707;SHT31;52423;43.512;5.220;2022-12-18T17:33:19;10.10;84.51
65707;SHT31;52423;43.512;5.220;2022-12-18T17:35:45;10.28;83.77
65707;SHT31;52423;43.512;5.220;2022-12-18T17:38:11;10.40;82.92